Charter Quote
Worldwide +1-877-727-2538 Call
Select Language Lang
SAFETY RELIABILITY EXPERIENCE

Private Jet Charter Services - Yan'An Airport (ZLYA)

Paramount Business Jets offers private jet charter flights and luxury airliner charters to and from Yan'An Airport.

AIRPORT INFORMATION
ICAOZLYA
IATAENY
LOCATIONYan'An, China
FACILITY TYPEAIRPORT

At Paramount Business Jets you can hire chartered private jets to and from Yan'An Airport with as little as 4 hours of notice. All flights booked via Paramount Business Jets are operated by certified direct air carriers that meet and exceed the FAA part 135 and 121 protocol or a foreign equivalent safety authority. Furthermore, Paramount Business Jets subscribes to ARGUS for their third party safety checks of operators, aircraft, and crews prior each and every flight to and from Yan'An Airport and worldwide.

  • Quote a trip using Yan'An Airport or call us 24/7 - 365 days a year at +1-877-727-2538.
Questions? Call +1-877-727-2538

METAR Weather Data at Yan'An Airport, ZLYA, ENY

STATIONZLYA
OBSERVEDTue Aug 19, 07:00 UTC
NOWThu Nov 14, 17:13 UTC
AGE45922:13 hr ago
WINDESE at 7 mph
VISIBILITY16 miles
CLOUDSpartly cloudy
TEMP84°F (29°C)
DEWPT54°F (12°C)
HUMIDITY35%
BAROMETER1017 hPa (30.03 in Hg)
METARZLYA 190700Z 11003MPS 080V170 9999 FEW030 29/12 Q1017 NOSIG

Call us on +1-877-727-2538 (24 Hours), Check our Pricing, or Get a Quick Quote.

Find Airports Near any Location

Processing
...